Tar Heel, NC (28392)

8:17 PM EDT op 25 oktober 2014 (GMT -0400)
Tobermory | Change Station
CLOSE
Current Station
Persoonlijk weerstation
Location: Fayetteville, NC
Geometrische hoogte: 25 ft
Nabije weerstations

Hoogte 25 ft 34.83 °N, 78.87 °W | Updated 2 minutes ago

Helder
Helder
51.4 °F
Voelt als 51.4 °F
N
0.0
Wind Variabel Wind van ZW

Vandaag
Hoog -- | Laag -- °F
--% Kans op neerslag
Gisteren
Hoog -- | Laag -- °F
Precip. -- inches
7:29 AM 6:28 PM
Wassende halvemaan, 5% visible
Druk 29.94 inches
Zicht 10.0 mijlen
Wolken Helder
Dauwpunt 47 °F
Vochtigheid 86%
Neerslag 0.00 inches
Dikte sneeuw Niet beschikbaar.
UV 0 van de 12
Pollen 3.50 van de 12
Luchtkwaliteit Niet beschikbaar.
Flu Activity Local Activity
METAR KLBT 252354Z AUTO 00000KT 10SM CLR 13/08 A2993 RMK AO2 SLP136 T01280078 10244 20128 53006

More Conditions Fewer Conditions

Druk 29.94 inches
Zicht 10.0 mijlen
Wolken Helder
Dauwpunt 47 °F
Vochtigheid 86%
Neerslag 0.00 inches
Dikte sneeuw Niet beschikbaar.
UV 0 van de 12
Pollen 3.50 van de 12
Luchtkwaliteit Niet beschikbaar.
Flu Activity Local Activity
METAR KLBT 252354Z AUTO 00000KT 10SM CLR 13/08 A2993 RMK AO2 SLP136 T01280078 10244 20128 53006

More Conditions Fewer Conditions

10-Day Weather Forecast

Almanac

Astronomie

Oct. 25, 2014 Opkomst Ondergang
Werkelijke tijd 7:29 AM EDT 6:28 PM EDT
Burgerlijke schemering 7:03 AM EDT 6:54 PM EDT
Nautische schemering 6:34 AM EDT 7:23 PM EDT
Astronomische schemering 6:04 AM EDT 7:53 PM EDT
Maan 9:03 AM EDT (10/25) 7:53 PM EDT (10/25)
Golflengte van het zichtbare licht 11h 50m
Daglengte
10h 59m
Tomorrow will be 1m 59s shorter.
Wassende halvemaan, 5% of the Moon is Illuminated
Vandaag
Wassende halvemaan
oktober 30
Eerste kwartier
nov 6
Volle maan
nov 14
Laatste kwartier
nov 22
Nieuw

Extremen vandaag

State Highs State Lows

Community

WunderPhotos

Upload Photos

1,765,039 foto’s ge-upload!

Nearby

Dikte sneeuw

Station Depth Geometrische hoogte
Er is geen verse sneeuw gerapporteerd.

Aardbevingen

Stad Distance Mag. Time & Date
No recent earthquake activity has been reported nearby.
Minimum magnitude displayed is 2.5.

Watertemperatuur langs de kust

Plaats Temperatuur
Geen meldingen van stations

Nabije weerstations